Time;durP1;ratioP1;P1;durP2;ratioP2;P2;SDS_P1;SDS_P2;PMS_P1;PMS_P2;Temp;Humidity;BMP_temperature;BMP_pressure;BME280_temperature;BME280_humidity;BME280_pressure;Samples;Min_cycle;Max_cycle;Signal;HPM_P1;HPM_P2
2022/04/06 00:02:14;;;;;;;1.50;0.40;;;30.90;29.80;;;;;;5075840;28;20534;-61
2022/04/06 00:04:42;;;;;;;0.30;0.10;;;30.70;30.00;;;;;;5067296;28;20051;-61
2022/04/06 00:07:10;;;;;;;7.60;0.75;;;30.40;30.00;;;;;;5076299;28;20052;-57
2022/04/06 00:09:39;;;;;;;0.38;0.00;;;30.20;30.40;;;;;;5087838;28;20060;-57
2022/04/06 00:12:08;;;;;;;0.20;0.10;;;29.90;30.60;;;;;;5082270;28;20037;-58
2022/04/06 00:14:35;;;;;;;4.63;0.10;;;29.70;30.80;;;;;;5068785;28;20410;-53
2022/04/06 00:17:05;;;;;;;0.20;0.10;;;29.50;31.00;;;;;;5081197;28;20579;-59
2022/04/06 00:19:33;;;;;;;0.30;0.30;;;29.30;31.80;;;;;;5066334;28;20080;-57
2022/04/06 00:22:03;;;;;;;2.38;0.30;;;29.10;31.50;;;;;;5080199;28;20284;-60
2022/04/06 00:24:30;;;;;;;3.00;0.55;;;28.90;31.70;;;;;;5079032;28;20052;-55
2022/04/06 00:26:57;;;;;;;0.20;0.10;;;28.70;32.00;;;;;;5078245;28;20031;-56
2022/04/06 00:29:25;;;;;;;1.85;0.20;;;28.50;32.10;;;;;;5079631;28;20412;-49
2022/04/06 00:31:52;;;;;;;6.13;0.52;;;28.40;32.30;;;;;;5079461;28;20080;-56
2022/04/06 00:34:19;;;;;;;2.97;0.15;;;28.20;32.40;;;;;;5064212;28;20055;-54
2022/04/06 00:36:46;;;;;;;0.65;0.32;;;28.10;32.60;;;;;;5079699;28;20040;-54
2022/04/06 00:39:14;;;;;;;1.35;0.20;;;27.90;32.70;;;;;;5078164;28;20468;-54
2022/04/06 00:41:42;;;;;;;0.65;0.10;;;27.80;32.90;;;;;;5080303;28;20067;-55
2022/04/06 00:44:14;;;;;;;0.70;0.00;;;27.70;33.10;;;;;;5078070;28;20079;-56
2022/04/06 00:46:42;;;;;;;1.80;0.10;;;27.60;33.30;;;;;;5085658;28;20779;-56
2022/04/06 00:49:11;;;;;;;2.22;0.17;;;27.40;33.30;;;;;;5076350;28;20051;-59
2022/04/06 00:51:40;;;;;;;1.63;0.13;;;27.30;33.60;;;;;;5082687;28;20040;-58
2022/04/06 00:54:08;;;;;;;0.77;0.75;;;27.10;33.80;;;;;;5073184;28;20045;-55
2022/04/06 00:56:37;;;;;;;0.73;0.10;;;27.00;33.90;;;;;;5069838;28;20071;-54
2022/04/06 00:59:04;;;;;;;0.75;0.10;;;26.90;34.10;;;;;;5070124;28;20044;-55
2022/04/06 01:01:31;;;;;;;2.95;0.65;;;26.80;34.20;;;;;;5065630;28;20053;-45
2022/04/06 01:03:58;;;;;;;2.58;0.15;;;26.70;34.30;;;;;;5073761;28;20047;-54
2022/04/06 01:06:26;;;;;;;2.25;0.30;;;26.60;34.40;;;;;;5073281;28;20087;-49
2022/04/06 01:08:53;;;;;;;2.90;0.20;;;26.60;34.60;;;;;;5073727;28;20676;-58
2022/04/06 01:11:21;;;;;;;0.20;0.10;;;26.40;34.60;;;;;;5082374;28;20049;-50
2022/04/06 01:13:49;;;;;;;1.02;0.10;;;26.40;34.80;;;;;;5068467;28;20454;-52
2022/04/06 01:16:17;;;;;;;0.98;0.10;;;26.40;34.90;;;;;;5073691;28;20426;-59
2022/04/06 01:18:44;;;;;;;0.63;0.20;;;26.30;34.90;;;;;;5081136;28;20036;-55
2022/04/06 01:21:12;;;;;;;3.50;0.17;;;26.30;35.20;;;;;;5072838;28;20543;-47
2022/04/06 01:23:42;;;;;;;2.55;0.20;;;26.20;35.10;;;;;;5078766;28;20127;-45
2022/04/06 01:26:10;;;;;;;1.00;0.13;;;26.20;35.10;;;;;;5076526;28;20044;-60
2022/04/06 01:28:38;;;;;;;2.60;0.60;;;26.20;35.20;;;;;;5070992;28;20043;-58
2022/04/06 01:31:05;;;;;;;3.67;0.10;;;26.10;35.20;;;;;;5069816;28;20056;-55
2022/04/06 01:33:33;;;;;;;2.20;0.10;;;26.20;35.30;;;;;;5079019;28;20416;-64
2022/04/06 01:36:01;;;;;;;0.10;0.08;;;26.10;35.20;;;;;;5074818;28;20114;-65
2022/04/06 01:38:29;;;;;;;7.88;0.32;;;26.10;35.20;;;;;;5069284;28;20130;-59
2022/04/06 01:40:57;;;;;;;2.92;0.40;;;26.00;35.30;;;;;;5087604;28;20127;-61
2022/04/06 01:43:25;;;;;;;1.35;0.55;;;25.90;35.30;;;;;;5088891;28;20052;-60
2022/04/06 01:45:52;;;;;;;5.63;0.60;;;25.70;35.40;;;;;;5080313;28;20265;-60
2022/04/06 01:48:20;;;;;;;2.72;0.30;;;25.50;35.60;;;;;;5080768;28;20039;-60
2022/04/06 01:53:32;;;;;;;7.43;0.28;;;25.00;36.20;;;;;;5079135;28;20040;-60
2022/04/06 01:56:00;;;;;;;3.40;0.30;;;24.70;36.50;;;;;;5080725;28;20040;-60
2022/04/06 01:58:27;;;;;;;3.47;0.75;;;24.60;36.90;;;;;;5065708;28;20044;-60
2022/04/06 02:00:55;;;;;;;1.80;0.10;;;24.30;37.10;;;;;;5079936;28;20036;-60
2022/04/06 02:03:22;;;;;;;1.77;0.10;;;24.20;37.30;;;;;;5080998;28;20054;-60
2022/04/06 02:05:49;;;;;;;1.85;0.10;;;24.10;37.60;;;;;;5060549;28;20055;-59
2022/04/06 02:08:17;;;;;;;0.80;0.10;;;24.00;37.80;;;;;;5075069;28;20037;-60
2022/04/06 02:10:45;;;;;;;0.30;0.00;;;23.80;38.00;;;;;;5081090;28;20059;-60
2022/04/06 02:13:13;;;;;;;0.45;0.32;;;23.70;38.20;;;;;;5088783;28;20795;-59
2022/04/06 02:15:40;;;;;;;0.08;0.00;;;23.60;38.30;;;;;;5060163;28;20048;-59
2022/04/06 02:18:08;;;;;;;0.90;0.15;;;23.50;38.50;;;;;;5076998;28;20128;-61
2022/04/06 02:20:36;;;;;;;2.92;0.20;;;23.50;39.30;;;;;;5063546;28;20048;-61
2022/04/06 02:23:03;;;;;;;4.18;0.10;;;23.40;38.90;;;;;;5068038;28;20121;-61
2022/04/06 02:25:31;;;;;;;2.15;0.40;;;23.30;39.00;;;;;;5071928;28;20494;-60
2022/04/06 02:27:58;;;;;;;0.88;0.00;;;23.30;39.20;;;;;;5073822;28;20049;-58
2022/04/06 02:30:26;;;;;;;0.93;0.20;;;23.20;39.40;;;;;;5073037;28;20032;-61
2022/04/06 02:32:54;;;;;;;1.33;0.00;;;23.10;39.40;;;;;;5073478;28;20037;-60
2022/04/06 02:35:21;;;;;;;3.10;0.08;;;23.10;39.50;;;;;;5070580;28;20047;-61
2022/04/06 02:37:48;;;;;;;1.40;0.10;;;23.00;39.60;;;;;;5083185;28;20049;-62
2022/04/06 02:40:16;;;;;;;3.25;0.40;;;23.00;39.70;;;;;;5075435;28;20522;-62
2022/04/06 02:42:43;;;;;;;2.10;0.10;;;22.90;39.80;;;;;;5081004;28;20084;-62
2022/04/06 02:45:11;;;;;;;1.48;0.10;;;22.90;39.90;;;;;;5071637;28;20067;-60
2022/04/06 02:47:39;;;;;;;3.53;0.50;;;22.80;39.90;;;;;;5066571;28;20044;-61
2022/04/06 02:50:07;;;;;;;0.47;0.00;;;22.80;40.00;;;;;;5069150;28;20608;-61
2022/04/06 02:52:35;;;;;;;0.00;0.00;;;22.80;40.00;;;;;;5057750;28;20058;-61
2022/04/06 02:55:02;;;;;;;4.03;0.10;;;22.80;40.10;;;;;;5078532;28;20091;-62
2022/04/06 02:57:29;;;;;;;0.70;0.10;;;22.70;40.10;;;;;;5075260;28;20041;-62
2022/04/06 02:59:56;;;;;;;4.38;0.10;;;22.70;40.10;;;;;;5072303;28;21180;-61
2022/04/06 03:02:23;;;;;;;1.45;0.00;;;22.70;40.20;;;;;;5075808;28;20049;-61
2022/04/06 03:04:52;;;;;;;1.75;0.55;;;22.70;40.30;;;;;;5065810;28;20041;-62
2022/04/06 03:07:20;;;;;;;1.17;0.10;;;22.70;40.30;;;;;;5086208;28;20102;-61
2022/04/06 03:09:47;;;;;;;0.05;0.00;;;22.60;40.30;;;;;;5074193;28;20040;-61
2022/04/06 03:12:14;;;;;;;0.45;0.00;;;22.60;40.40;;;;;;5078248;28;20180;-64
2022/04/06 03:14:42;;;;;;;4.32;0.10;;;22.60;40.50;;;;;;5071565;28;20905;-59
2022/04/06 03:17:09;;;;;;;2.70;0.25;;;22.60;41.10;;;;;;5075441;28;20049;-59
2022/04/06 03:19:36;;;;;;;2.72;0.10;;;22.60;41.30;;;;;;5081879;28;20094;-59
2022/04/06 03:22:05;;;;;;;3.03;0.10;;;22.60;41.30;;;;;;5074358;28;20126;-59
2022/04/06 03:24:32;;;;;;;5.25;0.00;;;22.60;41.40;;;;;;5068056;28;20044;-58
2022/04/06 03:26:59;;;;;;;4.15;0.80;;;22.50;41.30;;;;;;5074936;28;20040;-59
2022/04/06 03:29:27;;;;;;;4.38;0.10;;;22.50;41.30;;;;;;5050237;28;20653;-59
2022/04/06 03:31:54;;;;;;;2.20;0.13;;;22.50;41.30;;;;;;5073901;28;20819;-57
2022/04/06 03:34:21;;;;;;;0.85;0.10;;;22.40;41.40;;;;;;5083132;28;20438;-56
2022/04/06 03:36:48;;;;;;;1.48;0.00;;;22.40;41.50;;;;;;5074854;28;20076;-53
2022/04/06 03:39:17;;;;;;;0.70;0.10;;;22.40;41.60;;;;;;5077599;28;20118;-56
2022/04/06 03:41:44;;;;;;;0.80;0.03;;;22.30;41.60;;;;;;5078127;28;20098;-56
2022/04/06 03:44:11;;;;;;;2.85;0.10;;;22.30;41.70;;;;;;5048696;28;20045;-56
2022/04/06 03:46:38;;;;;;;1.95;0.47;;;22.20;41.70;;;;;;5072433;28;20116;-57
2022/04/06 03:49:05;;;;;;;2.05;0.10;;;22.10;41.80;;;;;;5080571;28;20083;-58
2022/04/06 03:51:32;;;;;;;0.68;0.20;;;22.10;41.90;;;;;;5076700;28;20044;-57
2022/04/06 03:53:59;;;;;;;2.33;0.10;;;22.10;41.90;;;;;;5067139;28;20037;-58
2022/04/06 03:56:28;;;;;;;0.20;0.20;;;22.00;42.00;;;;;;5076841;28;20032;-57
2022/04/06 03:58:55;;;;;;;0.75;0.08;;;22.00;42.20;;;;;;5079862;28;20682;-58
2022/04/06 04:01:23;;;;;;;1.85;0.03;;;21.90;42.30;;;;;;5078980;28;20079;-57
2022/04/06 04:03:50;;;;;;;0.43;0.20;;;21.90;42.30;;;;;;5075276;28;20040;-59
2022/04/06 04:06:17;;;;;;;0.63;0.10;;;21.80;42.30;;;;;;5082643;28;20040;-58
2022/04/06 04:08:44;;;;;;;0.00;0.00;;;21.80;42.40;;;;;;5077683;28;20042;-58
2022/04/06 04:11:12;;;;;;;0.82;0.10;;;21.80;42.50;;;;;;5076391;28;20082;-56
2022/04/06 04:13:41;;;;;;;0.60;0.43;;;21.70;42.50;;;;;;5066493;28;20048;-56
2022/04/06 04:16:08;;;;;;;0.55;0.10;;;21.70;42.60;;;;;;5088470;28;20386;-56
2022/04/06 04:18:36;;;;;;;0.20;0.20;;;21.70;43.20;;;;;;5077766;28;20047;-56
2022/04/06 04:23:48;;;;;;;1.08;0.10;;;21.60;42.80;;;;;;5088625;28;20039;-55
2022/04/06 04:26:16;;;;;;;0.50;0.32;;;21.60;42.80;;;;;;5089036;28;20063;-54
2022/04/06 04:28:45;;;;;;;1.67;0.00;;;21.50;42.90;;;;;;5087778;28;20075;-55
2022/04/06 04:31:12;;;;;;;0.17;0.03;;;21.50;42.90;;;;;;5088993;28;20518;-55
2022/04/06 04:33:39;;;;;;;0.45;0.00;;;21.50;43.00;;;;;;5090313;28;20048;-57
2022/04/06 04:36:07;;;;;;;0.50;0.22;;;21.50;43.20;;;;;;5085040;28;20133;-57
2022/04/06 04:38:34;;;;;;;2.75;0.15;;;21.50;43.20;;;;;;5064628;28;20054;-55
2022/04/06 04:41:01;;;;;;;1.45;0.52;;;21.40;43.30;;;;;;5078095;28;20413;-58
2022/04/06 04:43:28;;;;;;;4.80;0.00;;;21.40;43.40;;;;;;5088821;28;20059;-59
2022/04/06 04:45:57;;;;;;;4.97;0.20;;;21.40;43.50;;;;;;5085304;28;20039;-59
2022/04/06 04:48:24;;;;;;;4.88;0.22;;;21.40;44.30;;;;;;5086878;28;20036;-59
2022/04/06 04:50:52;;;;;;;0.40;0.10;;;21.40;44.20;;;;;;5082487;28;20709;-58
2022/04/06 04:53:19;;;;;;;0.10;0.08;;;21.40;44.20;;;;;;5069835;28;20045;-59
2022/04/06 04:55:47;;;;;;;1.13;0.10;;;21.40;44.10;;;;;;5063802;28;20040;-59
2022/04/06 04:58:14;;;;;;;0.10;0.00;;;21.30;44.00;;;;;;5086519;28;20044;-58
2022/04/06 05:00:42;;;;;;;0.03;0.00;;;21.30;44.00;;;;;;5087042;28;20043;-56
2022/04/06 05:03:10;;;;;;;0.13;0.00;;;21.30;44.10;;;;;;5078100;28;20051;-58
2022/04/06 05:05:39;;;;;;;0.20;0.08;;;21.30;44.20;;;;;;5072240;28;20059;-58
2022/04/06 05:08:07;;;;;;;0.20;0.00;;;21.30;44.20;;;;;;5090006;28;20051;-58
2022/04/06 05:10:34;;;;;;;4.40;0.10;;;21.20;44.20;;;;;;5090475;28;20100;-58
2022/04/06 05:13:01;;;;;;;0.35;0.05;;;21.20;44.20;;;;;;5075229;28;20477;-59
2022/04/06 05:15:28;;;;;;;0.10;0.00;;;21.20;44.30;;;;;;5082746;28;20063;-58
2022/04/06 05:17:55;;;;;;;0.98;0.05;;;21.20;44.30;;;;;;5084101;28;20095;-58
2022/04/06 05:20:24;;;;;;;0.17;0.00;;;21.10;44.30;;;;;;5083275;28;20043;-58
2022/04/06 05:22:51;;;;;;;0.10;0.00;;;21.20;44.40;;;;;;5074739;28;20048;-57
2022/04/06 05:25:20;;;;;;;0.20;0.20;;;21.20;44.40;;;;;;5086112;28;20472;-58
2022/04/06 05:27:49;;;;;;;0.90;0.00;;;21.10;44.50;;;;;;5083636;28;20043;-58
2022/04/06 05:30:18;;;;;;;0.45;0.00;;;21.10;44.50;;;;;;5088183;28;20045;-58
2022/04/06 05:32:46;;;;;;;1.05;0.32;;;21.10;44.50;;;;;;5072077;28;20044;-57
2022/04/06 05:35:13;;;;;;;0.22;0.00;;;21.10;44.60;;;;;;5082428;28;20044;-58
2022/04/06 05:37:43;;;;;;;0.10;0.00;;;21.10;44.60;;;;;;5091370;28;20052;-59
2022/04/06 05:40:13;;;;;;;0.85;0.00;;;21.10;44.70;;;;;;5087092;28;20040;-58
2022/04/06 05:42:40;;;;;;;3.10;0.20;;;21.10;44.70;;;;;;5077609;28;20048;-59
2022/04/06 05:45:09;;;;;;;2.85;0.20;;;21.10;44.80;;;;;;5076168;28;20039;-59
2022/04/06 05:47:37;;;;;;;1.48;0.10;;;21.10;44.80;;;;;;5088703;28;20103;-59
2022/04/06 05:50:06;;;;;;;0.52;0.05;;;21.00;44.80;;;;;;5088223;28;20035;-59
2022/04/06 05:52:34;;;;;;;1.10;0.10;;;21.10;44.90;;;;;;5049197;28;20110;-59
2022/04/06 05:55:03;;;;;;;0.73;0.13;;;21.00;44.80;;;;;;5094013;28;20123;-59
2022/04/06 05:57:30;;;;;;;1.40;0.00;;;21.00;44.80;;;;;;5101503;28;20051;-59
2022/04/06 05:59:57;;;;;;;1.30;0.25;;;21.00;44.80;;;;;;5102631;28;20040;-59
2022/04/06 06:02:24;;;;;;;0.40;0.00;;;21.00;44.80;;;;;;5100797;28;20046;-59
2022/04/06 06:04:52;;;;;;;1.17;0.30;;;21.00;44.80;;;;;;5101160;28;20047;-59
2022/04/06 06:07:20;;;;;;;2.42;0.00;;;21.00;44.80;;;;;;5097834;28;20473;-59
2022/04/06 06:09:47;;;;;;;3.20;0.22;;;21.00;44.80;;;;;;5090626;28;20086;-58
2022/04/06 06:12:16;;;;;;;15.80;1.25;;;21.00;44.80;;;;;;5098925;28;20513;-58
2022/04/06 06:14:43;;;;;;;0.65;0.15;;;21.00;45.30;;;;;;5090929;28;20046;-59
2022/04/06 06:17:10;;;;;;;6.50;0.85;;;20.90;45.10;;;;;;5092965;28;20074;-57
2022/04/06 06:19:37;;;;;;;0.47;0.10;;;20.90;45.10;;;;;;5089993;28;20067;-57
2022/04/06 06:22:05;;;;;;;5.60;0.20;;;21.00;45.00;;;;;;5099556;28;20126;-52
2022/04/06 06:24:32;;;;;;;6.32;0.10;;;21.00;45.10;;;;;;5097563;28;20039;-51
2022/04/06 06:26:59;;;;;;;2.92;0.17;;;21.00;45.40;;;;;;5100590;28;20039;-56
2022/04/06 06:29:28;;;;;;;11.10;1.38;;;20.90;45.50;;;;;;5089228;28;20685;-51
2022/04/06 06:31:55;;;;;;;9.80;1.15;;;21.00;45.90;;;;;;5098045;28;20089;-56
2022/04/06 06:34:22;;;;;;;14.00;1.00;;;21.00;46.10;;;;;;5092020;28;20032;-52
2022/04/06 06:36:49;;;;;;;9.50;1.15;;;21.00;46.20;;;;;;5078837;28;20081;-51
2022/04/06 06:39:17;;;;;;;15.80;1.00;;;21.00;46.20;;;;;;5094042;28;20028;-51
2022/04/06 06:41:44;;;;;;;8.98;1.65;;;21.00;46.70;;;;;;5096906;28;20260;-48
2022/04/06 06:44:11;;;;;;;5.68;0.10;;;21.00;46.00;;;;;;5086671;28;20040;-52
2022/04/06 06:46:39;;;;;;;8.05;0.20;;;21.00;45.90;;;;;;5093314;28;20044;-49
2022/04/06 06:49:07;;;;;;;7.30;0.30;;;21.00;45.90;;;;;;5096320;28;20040;-47
2022/04/06 06:51:34;;;;;;;10.93;0.93;;;21.00;45.80;;;;;;5093532;27;20143;-50
2022/04/06 06:54:01;;;;;;;4.53;0.60;;;21.00;45.70;;;;;;5094037;28;20063;-50
2022/04/06 06:56:29;;;;;;;5.95;0.82;;;21.00;45.70;;;;;;5093357;28;20035;-54
2022/04/06 06:58:56;;;;;;;1.02;0.20;;;21.00;45.60;;;;;;5091588;28;20119;-47
2022/04/06 07:01:23;;;;;;;4.72;0.40;;;21.00;45.50;;;;;;5091862;28;20085;-56
2022/04/06 07:03:52;;;;;;;3.53;0.85;;;21.00;45.50;;;;;;5089184;28;20085;-51
2022/04/06 07:06:19;;;;;;;1.58;0.20;;;21.00;45.40;;;;;;5090782;28;20047;-49
2022/04/06 07:08:46;;;;;;;1.00;0.10;;;21.00;45.40;;;;;;5099769;28;20040;-55
2022/04/06 07:11:13;;;;;;;3.25;0.10;;;21.00;45.30;;;;;;5092637;28;20152;-51
2022/04/06 07:13:40;;;;;;;2.75;0.10;;;21.00;45.30;;;;;;5092642;28;20432;-50
2022/04/06 07:16:07;;;;;;;4.32;0.10;;;20.90;45.10;;;;;;5097735;28;20410;-47
2022/04/06 07:18:35;;;;;;;6.15;0.45;;;21.00;45.10;;;;;;5090268;28;20044;-48
2022/04/06 07:21:03;;;;;;;2.63;0.10;;;21.00;45.10;;;;;;5092919;28;20039;-47
2022/04/06 07:23:30;;;;;;;3.45;0.10;;;21.00;45.00;;;;;;5089470;28;20048;-49
2022/04/06 07:25:57;;;;;;;5.88;0.20;;;21.00;44.90;;;;;;5086087;28;20089;-49
2022/04/06 07:28:24;;;;;;;2.30;0.10;;;21.00;44.90;;;;;;5096127;28;20062;-46
2022/04/06 07:30:52;;;;;;;4.15;0.10;;;21.00;44.80;;;;;;5085195;28;20044;-53
2022/04/06 07:33:19;;;;;;;1.90;0.10;;;21.00;44.70;;;;;;5093888;28;20047;-48
2022/04/06 07:35:47;;;;;;;6.18;0.30;;;21.00;44.60;;;;;;5094687;28;20058;-51
2022/04/06 07:38:15;;;;;;;5.15;0.45;;;21.00;44.60;;;;;;5075376;28;20044;-49
2022/04/06 07:40:42;;;;;;;2.95;0.10;;;21.00;44.50;;;;;;5103093;27;20119;-50
2022/04/06 07:43:10;;;;;;;5.00;0.10;;;21.00;44.50;;;;;;5096292;28;20044;-51
2022/04/06 07:45:38;;;;;;;0.75;0.63;;;21.00;44.50;;;;;;5096831;28;20047;-53
2022/04/06 07:48:06;;;;;;;1.33;0.47;;;21.00;44.40;;;;;;5096895;28;20027;-52
2022/04/06 07:50:33;;;;;;;0.20;0.10;;;21.00;44.40;;;;;;5094531;28;20051;-50
2022/04/06 07:53:00;;;;;;;3.28;0.10;;;21.00;44.40;;;;;;5089427;28;20436;-49
2022/04/06 07:55:29;;;;;;;3.20;0.30;;;21.00;44.30;;;;;;5102539;28;20134;-52
2022/04/06 07:57:56;;;;;;;0.20;0.10;;;21.00;44.20;;;;;;5099487;28;20044;-50
2022/04/06 08:00:24;;;;;;;1.80;0.65;;;21.00;44.10;;;;;;5093586;28;20032;-51
2022/04/06 08:02:52;;;;;;;0.10;0.03;;;21.10;44.20;;;;;;5095207;28;20086;-47
2022/04/06 08:05:19;;;;;;;0.55;0.20;;;21.00;44.10;;;;;;5092154;28;20089;-50
2022/04/06 08:07:50;;;;;;;0.45;0.00;;;21.10;44.00;;;;;;5097564;28;20043;-53
2022/04/06 08:10:18;;;;;;;0.47;0.10;;;21.10;44.00;;;;;;5099341;28;20047;-46
2022/04/06 08:12:48;;;;;;;1.85;0.20;;;21.10;44.00;;;;;;5098751;28;20048;-53
2022/04/06 08:15:16;;;;;;;2.15;0.17;;;21.10;44.00;;;;;;5093121;28;20127;-52
2022/04/06 08:17:44;;;;;;;1.30;0.20;;;21.10;43.90;;;;;;5094120;28;20048;-53
2022/04/06 08:20:16;;;;;;;0.20;0.10;;;21.10;43.80;;;;;;5090429;28;20070;-52
2022/04/06 08:22:45;;;;;;;4.20;0.20;;;21.10;43.80;;;;;;5095016;28;20043;-51
2022/04/06 08:25:13;;;;;;;1.05;0.20;;;21.10;43.70;;;;;;5094344;28;20043;-50
2022/04/06 08:27:40;;;;;;;0.70;0.10;;;21.10;43.70;;;;;;5097242;28;20135;-50
2022/04/06 08:30:12;;;;;;;0.90;0.10;;;21.10;43.60;;;;;;5100739;28;20130;-50
2022/04/06 08:32:39;;;;;;;1.05;0.10;;;21.20;43.60;;;;;;5093199;28;20435;-51
2022/04/06 08:35:08;;;;;;;1.17;0.10;;;21.20;43.50;;;;;;5088554;28;20143;-52
2022/04/06 08:37:36;;;;;;;3.80;0.10;;;21.20;43.50;;;;;;5095920;28;20047;-49
2022/04/06 08:40:07;;;;;;;1.08;0.52;;;21.20;43.40;;;;;;5101984;28;20094;-50
2022/04/06 08:42:35;;;;;;;0.60;0.15;;;21.20;43.40;;;;;;5082838;28;20059;-51
2022/04/06 08:45:03;;;;;;;1.88;1.10;;;21.20;43.30;;;;;;5096001;28;20063;-49
2022/04/06 08:47:32;;;;;;;1.60;0.13;;;21.20;43.90;;;;;;5095005;28;20105;-54
2022/04/06 08:50:03;;;;;;;3.22;0.63;;;21.20;43.20;;;;;;5093943;28;20042;-49
2022/04/06 08:52:32;;;;;;;3.00;0.10;;;21.20;43.20;;;;;;5089960;28;20048;-52
2022/04/06 08:54:59;;;;;;;2.05;0.20;;;21.30;43.20;;;;;;5086406;28;20125;-49
2022/04/06 08:57:27;;;;;;;1.27;0.10;;;21.20;43.10;;;;;;5098770;28;20054;-46
2022/04/06 08:59:54;;;;;;;1.10;0.10;;;21.30;43.10;;;;;;5092722;28;20044;-48
2022/04/06 09:02:23;;;;;;;0.40;0.10;;;21.30;43.10;;;;;;5089884;28;20082;-53
2022/04/06 09:04:53;;;;;;;1.30;0.10;;;21.30;43.10;;;;;;5093843;28;20044;-52
2022/04/06 09:07:22;;;;;;;0.28;0.10;;;21.30;43.00;;;;;;5107918;28;20495;-52
2022/04/06 09:09:51;;;;;;;0.45;0.10;;;21.30;43.00;;;;;;5096342;28;20071;-49
2022/04/06 09:12:21;;;;;;;0.95;0.15;;;21.30;43.60;;;;;;5102483;28;20035;-49
2022/04/06 09:14:49;;;;;;;1.05;0.10;;;21.30;42.90;;;;;;5092201;28;20148;-54
2022/04/06 09:17:23;;;;;;;2.05;0.10;;;21.30;42.90;;;;;;5088759;28;20032;-48
2022/04/06 09:19:51;;;;;;;0.10;0.03;;;21.30;42.90;;;;;;5092448;28;20037;-54
2022/04/06 09:22:19;;;;;;;1.13;0.10;;;21.30;42.90;;;;;;5095130;28;20044;-46
2022/04/06 09:24:57;;;;;;;1.63;0.15;;;21.30;42.80;;;;;;5091892;28;20114;-47
2022/04/06 09:27:30;;;;;;;0.20;0.10;;;21.40;42.80;;;;;;5096222;28;20043;-51
2022/04/06 09:29:58;;;;;;;1.60;0.10;;;21.40;42.70;;;;;;5093517;28;20043;-51
2022/04/06 09:32:25;;;;;;;0.43;0.00;;;21.40;42.70;;;;;;5092429;28;20562;-49
2022/04/06 09:34:54;;;;;;;1.13;0.20;;;21.40;42.60;;;;;;5088395;28;20044;-50
2022/04/06 09:37:26;;;;;;;0.95;0.10;;;21.40;42.60;;;;;;5096844;28;20036;-48
2022/04/06 09:39:54;;;;;;;0.50;0.00;;;21.40;42.50;;;;;;5098783;28;20040;-50
2022/04/06 09:42:23;;;;;;;2.08;0.10;;;21.50;42.50;;;;;;5097005;28;20054;-50
2022/04/06 09:47:44;;;;;;;1.48;0.00;;;21.50;42.40;;;;;;5090461;27;20551;-48
2022/04/06 09:50:15;;;;;;;0.10;0.10;;;21.50;42.30;;;;;;5087520;28;20040;-48
2022/04/06 09:52:44;;;;;;;0.35;0.30;;;21.50;42.30;;;;;;5074708;28;20085;-49
2022/04/06 09:55:14;;;;;;;1.65;0.20;;;21.50;42.20;;;;;;5101770;28;20504;-47
2022/04/06 09:57:45;;;;;;;2.15;0.10;;;21.50;42.20;;;;;;5100335;28;20036;-46
2022/04/06 10:00:17;;;;;;;0.40;0.10;;;21.50;42.10;;;;;;5096119;28;20040;-47
2022/04/06 10:02:46;;;;;;;0.93;0.28;;;21.50;42.10;;;;;;5090289;28;20514;-50
2022/04/06 10:05:18;;;;;;;1.25;0.30;;;21.50;42.10;;;;;;5091363;28;20052;-54
2022/04/06 10:07:45;;;;;;;0.95;0.17;;;21.50;42.00;;;;;;5089795;28;20048;-52
2022/04/06 10:10:13;;;;;;;1.60;0.22;;;21.50;42.00;;;;;;5098572;28;20051;-45
2022/04/06 10:12:41;;;;;;;2.35;0.20;;;21.50;42.00;;;;;;5100277;28;20047;-51
2022/04/06 10:15:09;;;;;;;1.45;0.20;;;21.50;42.00;;;;;;5090432;28;20063;-49
2022/04/06 10:17:36;;;;;;;1.52;0.47;;;21.50;41.90;;;;;;5091095;28;20131;-48
2022/04/06 10:20:16;;;;;;;0.95;0.47;;;21.50;41.80;;;;;;5088273;28;20068;-49
2022/04/06 10:23:01;;;;;;;2.53;0.38;;;21.60;41.80;;;;;;5092532;28;20051;-48
2022/04/06 10:25:35;;;;;;;2.30;0.40;;;21.60;41.70;;;;;;5092453;28;20075;-50
2022/04/06 10:28:11;;;;;;;6.63;1.05;;;21.70;41.80;;;;;;5096413;28;20493;-48
2022/04/06 10:30:39;;;;;;;1.13;0.30;;;21.70;41.70;;;;;;5096243;28;20043;-51
2022/04/06 10:33:20;;;;;;;1.60;0.30;;;21.70;41.60;;;;;;5091423;28;20050;-51
2022/04/06 10:35:47;;;;;;;1.15;0.15;;;21.80;41.50;;;;;;5092277;28;20044;-49
2022/04/06 10:38:18;;;;;;;3.13;0.52;;;21.80;41.50;;;;;;5096085;28;20125;-46
2022/04/06 10:41:06;;;;;;;0.47;0.30;;;21.80;41.40;;;;;;5100782;27;20055;-49
2022/04/06 10:43:50;;;;;;;1.95;0.45;;;21.80;41.20;;;;;;5087789;28;20901;-51
2022/04/06 10:46:35;;;;;;;1.95;0.50;;;21.90;41.20;;;;;;5078255;28;20047;-50
2022/04/06 10:49:20;;;;;;;0.93;0.57;;;21.80;41.20;;;;;;5093108;28;20052;-50
2022/04/06 10:51:56;;;;;;;1.33;0.20;;;21.90;41.00;;;;;;5093256;28;20127;-51
2022/04/06 10:54:43;;;;;;;1.23;0.20;;;21.80;40.90;;;;;;5094060;28;20032;-48
2022/04/06 10:57:11;;;;;;;1.15;0.45;;;21.90;41.00;;;;;;5095274;28;20151;-51
2022/04/06 10:59:38;;;;;;;1.80;0.73;;;21.90;41.00;;;;;;5090128;28;20065;-50
2022/04/06 11:02:23;;;;;;;2.05;0.30;;;21.90;41.00;;;;;;5090658;28;20067;-51
2022/04/06 11:04:51;;;;;;;1.70;0.55;;;22.00;40.90;;;;;;5095555;28;20059;-53
2022/04/06 11:10:06;;;;;;;1.38;0.40;;;22.00;40.90;;;;;;5096537;28;20127;-53
2022/04/06 11:10:16;;;;;;;0.70;0.30;;;22.00;40.80;;;;;;5104480;28;20070;-48
2022/04/06 11:13:00;;;;;;;1.08;0.28;;;22.00;40.70;;;;;;5101700;28;20098;-51
2022/04/06 11:15:40;;;;;;;1.42;0.45;;;22.10;40.70;;;;;;5097664;27;20117;-48
2022/04/06 11:18:41;;;;;;;1.48;0.20;;;22.10;40.70;;;;;;5098679;28;20046;-48
2022/04/06 11:21:09;;;;;;;2.58;0.38;;;22.10;40.60;;;;;;5098848;28;20066;-47
2022/04/06 11:23:36;;;;;;;4.00;0.82;;;22.00;40.60;;;;;;5096010;28;20041;-51
2022/04/06 11:26:04;;;;;;;2.35;0.77;;;22.10;40.50;;;;;;5089562;28;20142;-47
2022/04/06 11:28:31;;;;;;;3.58;0.73;;;22.10;40.50;;;;;;5095168;28;20462;-49
2022/04/06 11:31:02;;;;;;;3.13;0.50;;;22.10;40.40;;;;;;5100831;28;20527;-49
2022/04/06 11:33:40;;;;;;;2.97;1.10;;;22.10;40.40;;;;;;5094204;28;20048;-51
2022/04/06 11:36:18;;;;;;;4.22;1.50;;;22.20;40.40;;;;;;5098089;28;20050;-51
2022/04/06 11:38:50;;;;;;;5.78;0.98;;;22.20;40.40;;;;;;5094320;28;20089;-53
2022/04/06 11:41:19;;;;;;;3.80;0.77;;;22.20;40.40;;;;;;5097383;28;20043;-53
2022/04/06 11:43:47;;;;;;;2.50;0.50;;;22.20;40.40;;;;;;5111710;27;20039;-54
2022/04/06 11:46:14;;;;;;;1.85;0.82;;;22.30;40.30;;;;;;5099536;28;20617;-48
2022/04/06 11:48:42;;;;;;;4.53;0.60;;;22.30;40.20;;;;;;5094057;28;20821;-53
2022/04/06 11:51:09;;;;;;;2.55;1.45;;;22.40;40.10;;;;;;5096379;28;20496;-50
2022/04/06 11:53:37;;;;;;;1.75;0.70;;;22.40;40.10;;;;;;5092172;28;20040;-52
2022/04/06 11:56:05;;;;;;;1.45;0.60;;;22.50;40.00;;;;;;5095049;28;20040;-50
2022/04/06 11:58:36;;;;;;;2.33;0.38;;;22.60;40.00;;;;;;5092082;28;20044;-50
2022/04/06 12:01:05;;;;;;;1.80;0.40;;;22.60;39.90;;;;;;5098524;28;20466;-52
2022/04/06 12:03:33;;;;;;;3.63;0.30;;;22.60;39.80;;;;;;5097744;28;20041;-51
2022/04/06 12:06:01;;;;;;;2.75;0.60;;;22.60;39.70;;;;;;5093102;28;20177;-51
2022/04/06 12:08:31;;;;;;;1.92;0.65;;;22.60;39.60;;;;;;5092043;28;20039;-49
2022/04/06 12:10:59;;;;;;;0.98;0.30;;;22.60;39.50;;;;;;5100050;28;20117;-49
2022/04/06 12:13:29;;;;;;;1.63;0.65;;;22.60;39.50;;;;;;5088139;28;20144;-51
2022/04/06 12:15:58;;;;;;;0.80;0.25;;;22.60;39.50;;;;;;5093535;28;20143;-49
2022/04/06 12:18:27;;;;;;;0.70;0.30;;;22.60;39.40;;;;;;5096985;28;20040;-50
2022/04/06 12:20:55;;;;;;;1.67;0.47;;;22.60;39.40;;;;;;5095215;28;20043;-50
2022/04/06 12:23:25;;;;;;;1.80;0.30;;;22.60;39.40;;;;;;5094566;28;21007;-54
2022/04/06 12:25:52;;;;;;;0.68;0.38;;;22.70;39.40;;;;;;5089524;28;20044;-51
2022/04/06 12:28:21;;;;;;;1.48;0.50;;;22.70;39.30;;;;;;5098651;28;20043;-52
2022/04/06 12:30:55;;;;;;;1.40;0.30;;;22.70;39.30;;;;;;5102594;28;20100;-47
2022/04/06 12:33:50;;;;;;;0.70;0.30;;;22.80;39.30;;;;;;5099870;28;20032;-48
2022/04/06 12:36:19;;;;;;;0.82;0.60;;;22.80;39.20;;;;;;5081546;28;20062;-48
2022/04/06 12:39:01;;;;;;;0.95;0.20;;;22.80;39.20;;;;;;5093190;28;20043;-51
2022/04/06 12:41:32;;;;;;;2.47;0.30;;;22.80;39.10;;;;;;5097657;28;20063;-50
2022/04/06 12:44:02;;;;;;;1.20;0.20;;;22.80;39.10;;;;;;5091247;28;20119;-52
2022/04/06 12:46:40;;;;;;;0.65;0.25;;;22.80;39.10;;;;;;5099245;28;20153;-50
2022/04/06 12:49:29;;;;;;;0.40;0.20;;;22.80;39.00;;;;;;5095826;28;20055;-53
2022/04/06 12:52:05;;;;;;;2.45;0.20;;;22.80;39.00;;;;;;5091192;28;20070;-49
2022/04/06 12:54:32;;;;;;;2.00;0.30;;;22.70;39.00;;;;;;5097439;28;20050;-50
2022/04/06 12:57:07;;;;;;;1.98;0.20;;;22.70;39.00;;;;;;5097299;28;20531;-51
2022/04/06 12:59:39;;;;;;;2.75;0.25;;;22.70;39.00;;;;;;5091397;28;20058;-50
2022/04/06 13:02:17;;;;;;;1.25;0.30;;;22.70;39.00;;;;;;5091046;28;20055;-51
2022/04/06 13:04:46;;;;;;;1.52;0.20;;;22.60;39.00;;;;;;5093885;28;20040;-49